sensor_id;sensor_type;location;lat;lon;timestamp;temperature;humidity
19974;DHT22;10148;47.694;9.442;2022-11-24T00:01:29;7.10;99.90
19974;DHT22;10148;47.694;9.442;2022-11-24T00:04:00;7.10;99.90
19974;DHT22;10148;47.694;9.442;2022-11-24T00:06:27;7.00;99.90
19974;DHT22;10148;47.694;9.442;2022-11-24T00:08:53;7.00;99.90
19974;DHT22;10148;47.694;9.442;2022-11-24T00:11:25;7.00;99.90
19974;DHT22;10148;47.694;9.442;2022-11-24T00:13:51;7.00;99.90
19974;DHT22;10148;47.694;9.442;2022-11-24T00:16:22;7.00;99.90
19974;DHT22;10148;47.694;9.442;2022-11-24T00:18:50;7.00;99.90
19974;DHT22;10148;47.694;9.442;2022-11-24T00:21:17;7.00;99.90
19974;DHT22;10148;47.694;9.442;2022-11-24T00:23:43;7.00;99.90
19974;DHT22;10148;47.694;9.442;2022-11-24T00:26:15;7.00;99.90
19974;DHT22;10148;47.694;9.442;2022-11-24T00:28:41;7.00;99.90
19974;DHT22;10148;47.694;9.442;2022-11-24T00:31:26;7.00;99.90
19974;DHT22;10148;47.694;9.442;2022-11-24T00:33:54;7.00;99.90
19974;DHT22;10148;47.694;9.442;2022-11-24T00:36:21;7.00;99.90
19974;DHT22;10148;47.694;9.442;2022-11-24T00:38:52;7.00;99.90
19974;DHT22;10148;47.694;9.442;2022-11-24T00:41:18;6.90;99.90
19974;DHT22;10148;47.694;9.442;2022-11-24T00:43:43;6.90;99.90
19974;DHT22;10148;47.694;9.442;2022-11-24T00:46:09;6.90;99.90
19974;DHT22;10148;47.694;9.442;2022-11-24T00:48:34;6.90;99.90
19974;DHT22;10148;47.694;9.442;2022-11-24T00:51:03;7.00;99.90
19974;DHT22;10148;47.694;9.442;2022-11-24T00:53:29;6.90;99.90
19974;DHT22;10148;47.694;9.442;2022-11-24T00:55:54;6.90;99.90
19974;DHT22;10148;47.694;9.442;2022-11-24T00:58:21;6.90;99.90
19974;DHT22;10148;47.694;9.442;2022-11-24T01:00:47;6.90;99.90
19974;DHT22;10148;47.694;9.442;2022-11-24T01:03:13;6.90;99.90
19974;DHT22;10148;47.694;9.442;2022-11-24T01:05:39;6.90;99.90
19974;DHT22;10148;47.694;9.442;2022-11-24T01:08:05;6.90;99.90
19974;DHT22;10148;47.694;9.442;2022-11-24T01:10:31;6.90;99.90
19974;DHT22;10148;47.694;9.442;2022-11-24T01:12:58;7.00;99.90
19974;DHT22;10148;47.694;9.442;2022-11-24T01:15:23;7.00;99.90
19974;DHT22;10148;47.694;9.442;2022-11-24T01:17:49;7.00;99.90
19974;DHT22;10148;47.694;9.442;2022-11-24T01:20:15;7.00;99.90
19974;DHT22;10148;47.694;9.442;2022-11-24T01:22:40;7.00;99.90
19974;DHT22;10148;47.694;9.442;2022-11-24T01:25:08;7.10;99.90
19974;DHT22;10148;47.694;9.442;2022-11-24T01:27:33;7.10;99.90
19974;DHT22;10148;47.694;9.442;2022-11-24T01:29:59;7.10;99.90
19974;DHT22;10148;47.694;9.442;2022-11-24T01:32:25;7.20;99.90
19974;DHT22;10148;47.694;9.442;2022-11-24T01:34:50;7.30;99.90
19974;DHT22;10148;47.694;9.442;2022-11-24T01:37:16;7.30;99.90
19974;DHT22;10148;47.694;9.442;2022-11-24T01:39:41;7.30;99.90
19974;DHT22;10148;47.694;9.442;2022-11-24T01:42:07;7.30;99.90
19974;DHT22;10148;47.694;9.442;2022-11-24T01:44:32;7.30;99.90
19974;DHT22;10148;47.694;9.442;2022-11-24T01:47:22;7.30;99.90
19974;DHT22;10148;47.694;9.442;2022-11-24T01:49:54;7.30;99.90
19974;DHT22;10148;47.694;9.442;2022-11-24T01:52:30;7.30;99.90
19974;DHT22;10148;47.694;9.442;2022-11-24T01:55:01;7.20;99.90
19974;DHT22;10148;47.694;9.442;2022-11-24T01:57:31;7.20;99.90
19974;DHT22;10148;47.694;9.442;2022-11-24T02:00:03;7.20;99.90
19974;DHT22;10148;47.694;9.442;2022-11-24T02:02:29;7.30;99.90
19974;DHT22;10148;47.694;9.442;2022-11-24T02:04:57;7.30;99.90
19974;DHT22;10148;47.694;9.442;2022-11-24T02:07:23;7.30;99.90
19974;DHT22;10148;47.694;9.442;2022-11-24T02:10:03;7.30;99.90
19974;DHT22;10148;47.694;9.442;2022-11-24T02:12:30;7.30;99.90
19974;DHT22;10148;47.694;9.442;2022-11-24T02:14:57;7.30;99.90
19974;DHT22;10148;47.694;9.442;2022-11-24T02:17:23;7.30;99.90
19974;DHT22;10148;47.694;9.442;2022-11-24T02:22:31;7.30;99.90
19974;DHT22;10148;47.694;9.442;2022-11-24T02:27:47;7.30;99.90
19974;DHT22;10148;47.694;9.442;2022-11-24T02:30:13;7.30;99.90
19974;DHT22;10148;47.694;9.442;2022-11-24T02:32:40;7.30;99.90
19974;DHT22;10148;47.694;9.442;2022-11-24T02:35:07;7.30;99.90
19974;DHT22;10148;47.694;9.442;2022-11-24T02:37:34;7.30;99.90
19974;DHT22;10148;47.694;9.442;2022-11-24T02:39:59;7.30;99.90
19974;DHT22;10148;47.694;9.442;2022-11-24T02:42:26;7.30;99.90
19974;DHT22;10148;47.694;9.442;2022-11-24T02:44:56;7.20;99.90
19974;DHT22;10148;47.694;9.442;2022-11-24T02:47:22;7.20;99.90
19974;DHT22;10148;47.694;9.442;2022-11-24T02:49:48;7.20;99.90
19974;DHT22;10148;47.694;9.442;2022-11-24T02:52:13;7.30;99.90
19974;DHT22;10148;47.694;9.442;2022-11-24T02:54:39;7.40;99.90
19974;DHT22;10148;47.694;9.442;2022-11-24T02:57:04;7.50;99.90
19974;DHT22;10148;47.694;9.442;2022-11-24T02:59:30;7.60;99.90
19974;DHT22;10148;47.694;9.442;2022-11-24T03:01:56;7.60;99.90
19974;DHT22;10148;47.694;9.442;2022-11-24T03:04:21;7.60;99.90
19974;DHT22;10148;47.694;9.442;2022-11-24T03:06:47;7.50;99.90
19974;DHT22;10148;47.694;9.442;2022-11-24T03:09:13;7.50;99.90
19974;DHT22;10148;47.694;9.442;2022-11-24T03:11:38;7.50;99.90
19974;DHT22;10148;47.694;9.442;2022-11-24T03:14:04;7.50;99.90
19974;DHT22;10148;47.694;9.442;2022-11-24T03:16:30;7.40;99.90
19974;DHT22;10148;47.694;9.442;2022-11-24T03:18:56;7.50;99.90
19974;DHT22;10148;47.694;9.442;2022-11-24T03:21:22;7.50;99.90
19974;DHT22;10148;47.694;9.442;2022-11-24T03:23:47;7.50;99.90
19974;DHT22;10148;47.694;9.442;2022-11-24T03:26:16;7.50;99.90
19974;DHT22;10148;47.694;9.442;2022-11-24T03:28:42;7.50;99.90
19974;DHT22;10148;47.694;9.442;2022-11-24T03:31:08;7.50;99.90
19974;DHT22;10148;47.694;9.442;2022-11-24T03:33:34;7.50;99.90
19974;DHT22;10148;47.694;9.442;2022-11-24T03:36:00;7.50;99.90
19974;DHT22;10148;47.694;9.442;2022-11-24T03:38:26;7.50;99.90
19974;DHT22;10148;47.694;9.442;2022-11-24T03:40:52;7.50;99.90
19974;DHT22;10148;47.694;9.442;2022-11-24T03:43:17;7.50;99.90
19974;DHT22;10148;47.694;9.442;2022-11-24T03:45:47;7.60;99.90
19974;DHT22;10148;47.694;9.442;2022-11-24T03:48:14;7.50;99.90
19974;DHT22;10148;47.694;9.442;2022-11-24T03:50:39;7.60;99.90
19974;DHT22;10148;47.694;9.442;2022-11-24T03:53:05;7.60;99.90
19974;DHT22;10148;47.694;9.442;2022-11-24T03:55:30;7.60;99.90
19974;DHT22;10148;47.694;9.442;2022-11-24T03:57:56;7.60;99.90
19974;DHT22;10148;47.694;9.442;2022-11-24T04:00:21;7.60;99.90
19974;DHT22;10148;47.694;9.442;2022-11-24T04:02:47;7.60;99.90
19974;DHT22;10148;47.694;9.442;2022-11-24T04:05:13;7.60;99.90
19974;DHT22;10148;47.694;9.442;2022-11-24T04:07:38;7.50;99.90
19974;DHT22;10148;47.694;9.442;2022-11-24T04:10:05;7.50;99.90
19974;DHT22;10148;47.694;9.442;2022-11-24T04:12:30;7.50;99.90
19974;DHT22;10148;47.694;9.442;2022-11-24T04:15:13;7.60;99.90
19974;DHT22;10148;47.694;9.442;2022-11-24T04:17:39;7.60;99.90
19974;DHT22;10148;47.694;9.442;2022-11-24T04:20:05;7.60;99.90
19974;DHT22;10148;47.694;9.442;2022-11-24T04:22:31;7.60;99.90
19974;DHT22;10148;47.694;9.442;2022-11-24T04:24:56;7.60;99.90
19974;DHT22;10148;47.694;9.442;2022-11-24T04:27:22;7.60;99.90
19974;DHT22;10148;47.694;9.442;2022-11-24T04:29:47;7.60;99.90
19974;DHT22;10148;47.694;9.442;2022-11-24T04:32:13;7.50;99.90
19974;DHT22;10148;47.694;9.442;2022-11-24T04:34:39;7.60;99.90
19974;DHT22;10148;47.694;9.442;2022-11-24T04:37:05;7.60;99.90
19974;DHT22;10148;47.694;9.442;2022-11-24T04:39:31;7.60;99.90
19974;DHT22;10148;47.694;9.442;2022-11-24T04:41:56;7.60;99.90
19974;DHT22;10148;47.694;9.442;2022-11-24T04:44:22;7.50;99.90
19974;DHT22;10148;47.694;9.442;2022-11-24T04:46:47;7.60;99.90
19974;DHT22;10148;47.694;9.442;2022-11-24T04:49:13;7.60;99.90
19974;DHT22;10148;47.694;9.442;2022-11-24T04:51:39;7.60;99.90
19974;DHT22;10148;47.694;9.442;2022-11-24T04:54:06;7.60;99.90
19974;DHT22;10148;47.694;9.442;2022-11-24T04:56:32;7.60;99.90
19974;DHT22;10148;47.694;9.442;2022-11-24T04:58:58;7.60;99.90
19974;DHT22;10148;47.694;9.442;2022-11-24T05:01:24;7.60;99.90
19974;DHT22;10148;47.694;9.442;2022-11-24T05:03:54;7.50;99.90
19974;DHT22;10148;47.694;9.442;2022-11-24T05:06:20;7.50;99.90
19974;DHT22;10148;47.694;9.442;2022-11-24T05:08:46;7.50;99.90
19974;DHT22;10148;47.694;9.442;2022-11-24T05:11:12;7.60;99.90
19974;DHT22;10148;47.694;9.442;2022-11-24T05:13:38;7.60;99.90
19974;DHT22;10148;47.694;9.442;2022-11-24T05:16:04;7.60;99.90
19974;DHT22;10148;47.694;9.442;2022-11-24T05:18:30;7.50;99.90
19974;DHT22;10148;47.694;9.442;2022-11-24T05:20:56;7.60;99.90
19974;DHT22;10148;47.694;9.442;2022-11-24T05:23:22;7.60;99.90
19974;DHT22;10148;47.694;9.442;2022-11-24T05:25:48;7.50;99.90
19974;DHT22;10148;47.694;9.442;2022-11-24T05:28:14;7.50;99.90
19974;DHT22;10148;47.694;9.442;2022-11-24T05:30:40;7.50;99.90
19974;DHT22;10148;47.694;9.442;2022-11-24T05:33:14;7.60;99.90
19974;DHT22;10148;47.694;9.442;2022-11-24T05:35:48;7.60;99.90
19974;DHT22;10148;47.694;9.442;2022-11-24T05:38:15;7.60;99.90
19974;DHT22;10148;47.694;9.442;2022-11-24T05:40:41;7.60;99.90
19974;DHT22;10148;47.694;9.442;2022-11-24T05:43:13;7.60;99.90
19974;DHT22;10148;47.694;9.442;2022-11-24T05:45:39;7.60;99.90
19974;DHT22;10148;47.694;9.442;2022-11-24T05:48:06;7.60;99.90
19974;DHT22;10148;47.694;9.442;2022-11-24T05:50:33;7.60;99.90
19974;DHT22;10148;47.694;9.442;2022-11-24T05:53:17;7.50;99.90
19974;DHT22;10148;47.694;9.442;2022-11-24T05:55:42;7.50;99.90
19974;DHT22;10148;47.694;9.442;2022-11-24T05:58:09;7.50;99.90
19974;DHT22;10148;47.694;9.442;2022-11-24T06:00:35;7.50;99.90
19974;DHT22;10148;47.694;9.442;2022-11-24T06:03:01;7.50;99.90
19974;DHT22;10148;47.694;9.442;2022-11-24T06:05:27;7.50;99.90
19974;DHT22;10148;47.694;9.442;2022-11-24T06:07:53;7.50;99.90
19974;DHT22;10148;47.694;9.442;2022-11-24T06:10:20;7.50;99.90
19974;DHT22;10148;47.694;9.442;2022-11-24T06:12:46;7.50;99.90
19974;DHT22;10148;47.694;9.442;2022-11-24T06:15:12;7.50;99.90
19974;DHT22;10148;47.694;9.442;2022-11-24T06:17:38;7.50;99.90
19974;DHT22;10148;47.694;9.442;2022-11-24T06:20:05;7.50;99.90
19974;DHT22;10148;47.694;9.442;2022-11-24T06:22:31;7.50;99.90
19974;DHT22;10148;47.694;9.442;2022-11-24T06:24:57;7.50;99.90
19974;DHT22;10148;47.694;9.442;2022-11-24T06:27:23;7.40;99.90
19974;DHT22;10148;47.694;9.442;2022-11-24T06:29:48;7.50;99.90
19974;DHT22;10148;47.694;9.442;2022-11-24T06:32:14;7.50;99.90
19974;DHT22;10148;47.694;9.442;2022-11-24T06:34:40;7.50;99.90
19974;DHT22;10148;47.694;9.442;2022-11-24T06:37:05;7.40;99.90
19974;DHT22;10148;47.694;9.442;2022-11-24T06:39:31;7.40;99.90
19974;DHT22;10148;47.694;9.442;2022-11-24T06:41:57;7.50;99.90
19974;DHT22;10148;47.694;9.442;2022-11-24T06:44:22;7.50;99.90
19974;DHT22;10148;47.694;9.442;2022-11-24T06:46:48;7.50;99.90
19974;DHT22;10148;47.694;9.442;2022-11-24T06:49:13;7.50;99.90
19974;DHT22;10148;47.694;9.442;2022-11-24T06:51:39;7.50;99.90
19974;DHT22;10148;47.694;9.442;2022-11-24T06:54:06;7.50;99.90
19974;DHT22;10148;47.694;9.442;2022-11-24T06:56:32;7.50;99.90
19974;DHT22;10148;47.694;9.442;2022-11-24T06:58:58;7.50;99.90
19974;DHT22;10148;47.694;9.442;2022-11-24T07:01:25;7.50;99.90
19974;DHT22;10148;47.694;9.442;2022-11-24T07:03:52;7.50;99.90
19974;DHT22;10148;47.694;9.442;2022-11-24T07:06:18;7.50;99.90
19974;DHT22;10148;47.694;9.442;2022-11-24T07:08:45;7.50;99.90
19974;DHT22;10148;47.694;9.442;2022-11-24T07:11:13;7.60;99.90
19974;DHT22;10148;47.694;9.442;2022-11-24T07:13:40;7.50;99.90
19974;DHT22;10148;47.694;9.442;2022-11-24T07:16:21;7.50;99.90
19974;DHT22;10148;47.694;9.442;2022-11-24T07:18:48;7.60;99.90
19974;DHT22;10148;47.694;9.442;2022-11-24T07:21:14;7.50;99.90
19974;DHT22;10148;47.694;9.442;2022-11-24T07:23:40;7.60;99.90
19974;DHT22;10148;47.694;9.442;2022-11-24T07:26:07;7.50;99.90
19974;DHT22;10148;47.694;9.442;2022-11-24T07:28:34;7.50;99.90
19974;DHT22;10148;47.694;9.442;2022-11-24T07:31:05;7.50;99.90
19974;DHT22;10148;47.694;9.442;2022-11-24T07:33:31;7.60;99.90
19974;DHT22;10148;47.694;9.442;2022-11-24T07:35:58;7.60;99.90
19974;DHT22;10148;47.694;9.442;2022-11-24T07:38:24;7.60;99.90
19974;DHT22;10148;47.694;9.442;2022-11-24T07:40:49;7.60;99.90
19974;DHT22;10148;47.694;9.442;2022-11-24T07:43:15;7.70;99.90
19974;DHT22;10148;47.694;9.442;2022-11-24T07:45:40;7.70;99.90
19974;DHT22;10148;47.694;9.442;2022-11-24T07:48:06;7.70;99.90
19974;DHT22;10148;47.694;9.442;2022-11-24T07:50:31;7.80;99.90
19974;DHT22;10148;47.694;9.442;2022-11-24T07:53:02;7.90;99.90
19974;DHT22;10148;47.694;9.442;2022-11-24T07:55:27;7.90;99.90
19974;DHT22;10148;47.694;9.442;2022-11-24T07:57:53;8.00;99.90
19974;DHT22;10148;47.694;9.442;2022-11-24T08:00:19;8.00;99.90
19974;DHT22;10148;47.694;9.442;2022-11-24T08:02:44;8.00;99.90
19974;DHT22;10148;47.694;9.442;2022-11-24T08:05:10;8.00;99.90
19974;DHT22;10148;47.694;9.442;2022-11-24T08:07:35;8.00;99.90
19974;DHT22;10148;47.694;9.442;2022-11-24T08:10:01;8.00;99.90
19974;DHT22;10148;47.694;9.442;2022-11-24T08:12:26;8.00;99.90
19974;DHT22;10148;47.694;9.442;2022-11-24T08:14:52;8.10;99.90
19974;DHT22;10148;47.694;9.442;2022-11-24T08:17:17;8.10;99.90
19974;DHT22;10148;47.694;9.442;2022-11-24T08:19:44;8.00;99.90
19974;DHT22;10148;47.694;9.442;2022-11-24T08:22:09;8.00;99.90
19974;DHT22;10148;47.694;9.442;2022-11-24T08:24:36;7.90;99.90
19974;DHT22;10148;47.694;9.442;2022-11-24T08:27:02;7.90;99.90
19974;DHT22;10148;47.694;9.442;2022-11-24T08:29:28;7.90;99.90
19974;DHT22;10148;47.694;9.442;2022-11-24T08:31:54;7.90;99.90
19974;DHT22;10148;47.694;9.442;2022-11-24T08:34:22;7.90;99.90
19974;DHT22;10148;47.694;9.442;2022-11-24T08:36:49;8.00;99.90
19974;DHT22;10148;47.694;9.442;2022-11-24T08:39:15;8.00;99.90
19974;DHT22;10148;47.694;9.442;2022-11-24T08:41:40;8.00;99.90
19974;DHT22;10148;47.694;9.442;2022-11-24T08:44:06;8.00;99.90
19974;DHT22;10148;47.694;9.442;2022-11-24T08:46:32;8.10;99.90
19974;DHT22;10148;47.694;9.442;2022-11-24T08:48:58;8.10;99.90
19974;DHT22;10148;47.694;9.442;2022-11-24T08:51:25;8.10;99.90
19974;DHT22;10148;47.694;9.442;2022-11-24T08:53:55;8.10;99.90
19974;DHT22;10148;47.694;9.442;2022-11-24T08:56:22;8.10;99.90
19974;DHT22;10148;47.694;9.442;2022-11-24T08:58:48;8.10;99.90
19974;DHT22;10148;47.694;9.442;2022-11-24T09:01:16;8.10;99.90
19974;DHT22;10148;47.694;9.442;2022-11-24T09:03:42;8.00;99.90
19974;DHT22;10148;47.694;9.442;2022-11-24T09:06:09;7.90;99.90
19974;DHT22;10148;47.694;9.442;2022-11-24T09:08:35;7.80;99.90
19974;DHT22;10148;47.694;9.442;2022-11-24T09:11:07;7.70;99.90
19974;DHT22;10148;47.694;9.442;2022-11-24T09:13:33;7.70;99.90
19974;DHT22;10148;47.694;9.442;2022-11-24T09:16:10;7.70;99.90
19974;DHT22;10148;47.694;9.442;2022-11-24T09:18:36;7.70;99.90
19974;DHT22;10148;47.694;9.442;2022-11-24T09:23:39;7.60;99.90
19974;DHT22;10148;47.694;9.442;2022-11-24T09:26:16;7.60;99.90
19974;DHT22;10148;47.694;9.442;2022-11-24T09:28:42;7.50;99.90
19974;DHT22;10148;47.694;9.442;2022-11-24T09:31:10;7.40;99.90
19974;DHT22;10148;47.694;9.442;2022-11-24T09:33:37;7.30;99.90
19974;DHT22;10148;47.694;9.442;2022-11-24T09:36:04;7.20;99.90
19974;DHT22;10148;47.694;9.442;2022-11-24T09:38:30;7.20;99.90
19974;DHT22;10148;47.694;9.442;2022-11-24T09:46:35;7.10;99.90
19974;DHT22;10148;47.694;9.442;2022-11-24T09:49:08;7.10;99.90
19974;DHT22;10148;47.694;9.442;2022-11-24T09:51:37;7.10;99.90
19974;DHT22;10148;47.694;9.442;2022-11-24T09:54:05;7.10;99.90
19974;DHT22;10148;47.694;9.442;2022-11-24T09:56:35;7.10;99.90
19974;DHT22;10148;47.694;9.442;2022-11-24T09:59:12;7.10;99.90
19974;DHT22;10148;47.694;9.442;2022-11-24T10:01:43;7.10;99.90
19974;DHT22;10148;47.694;9.442;2022-11-24T10:04:27;7.20;99.90
19974;DHT22;10148;47.694;9.442;2022-11-24T10:07:04;7.20;99.90
19974;DHT22;10148;47.694;9.442;2022-11-24T10:09:56;7.20;99.90
19974;DHT22;10148;47.694;9.442;2022-11-24T10:26:30;7.60;99.90
19974;DHT22;10148;47.694;9.442;2022-11-24T10:28:56;7.70;99.90
19974;DHT22;10148;47.694;9.442;2022-11-24T10:33:48;8.00;99.90
19974;DHT22;10148;47.694;9.442;2022-11-24T10:36:25;8.10;99.90
19974;DHT22;10148;47.694;9.442;2022-11-24T10:40:23;8.20;99.90
19974;DHT22;10148;47.694;9.442;2022-11-24T10:42:17;8.20;99.90
19974;DHT22;10148;47.694;9.442;2022-11-24T10:44:43;8.20;99.90
19974;DHT22;10148;47.694;9.442;2022-11-24T10:47:19;8.30;99.90
19974;DHT22;10148;47.694;9.442;2022-11-24T10:50:02;8.40;99.90
19974;DHT22;10148;47.694;9.442;2022-11-24T10:52:31;8.50;99.90
19974;DHT22;10148;47.694;9.442;2022-11-24T10:55:00;8.60;99.90
19974;DHT22;10148;47.694;9.442;2022-11-24T10:57:29;8.50;99.90
19974;DHT22;10148;47.694;9.442;2022-11-24T10:59:55;8.50;99.90
19974;DHT22;10148;47.694;9.442;2022-11-24T11:02:34;8.60;99.90
19974;DHT22;10148;47.694;9.442;2022-11-24T11:05:25;8.60;99.90
19974;DHT22;10148;47.694;9.442;2022-11-24T11:10:34;8.50;99.90
19974;DHT22;10148;47.694;9.442;2022-11-24T11:13:19;8.50;99.90
19974;DHT22;10148;47.694;9.442;2022-11-24T11:15:45;8.60;99.90
19974;DHT22;10148;47.694;9.442;2022-11-24T11:18:15;8.70;99.90
19974;DHT22;10148;47.694;9.442;2022-11-24T11:20:54;8.80;99.90
19974;DHT22;10148;47.694;9.442;2022-11-24T11:23:32;8.80;99.90
19974;DHT22;10148;47.694;9.442;2022-11-24T11:29:24;9.00;99.90
19974;DHT22;10148;47.694;9.442;2022-11-24T11:32:00;9.20;99.90
19974;DHT22;10148;47.694;9.442;2022-11-24T11:34:32;9.10;99.90
19974;DHT22;10148;47.694;9.442;2022-11-24T11:37:02;9.10;99.90
19974;DHT22;10148;47.694;9.442;2022-11-24T11:39:35;9.00;99.90
19974;DHT22;10148;47.694;9.442;2022-11-24T11:45:03;9.00;99.90
19974;DHT22;10148;47.694;9.442;2022-11-24T11:47:45;9.00;99.90
19974;DHT22;10148;47.694;9.442;2022-11-24T11:50:15;9.00;99.90
19974;DHT22;10148;47.694;9.442;2022-11-24T11:55:52;9.60;99.90
19974;DHT22;10148;47.694;9.442;2022-11-24T12:01:23;10.80;99.90
19974;DHT22;10148;47.694;9.442;2022-11-24T12:06:55;11.60;99.90
19974;DHT22;10148;47.694;9.442;2022-11-24T12:15:19;10.20;99.90
19974;DHT22;10148;47.694;9.442;2022-11-24T12:18:02;9.70;99.90
19974;DHT22;10148;47.694;9.442;2022-11-24T12:20:44;9.50;99.90
19974;DHT22;10148;47.694;9.442;2022-11-24T12:23:34;9.40;99.90
19974;DHT22;10148;47.694;9.442;2022-11-24T12:40:04;10.20;99.90
19974;DHT22;10148;47.694;9.442;2022-11-24T12:46:08;12.40;99.90
19974;DHT22;10148;47.694;9.442;2022-11-24T12:51:40;13.30;99.90
19974;DHT22;10148;47.694;9.442;2022-11-24T12:54:11;13.60;99.90
19974;DHT22;10148;47.694;9.442;2022-11-24T12:56:45;13.50;99.90
19974;DHT22;10148;47.694;9.442;2022-11-24T13:07:52;13.20;99.90
19974;DHT22;10148;47.694;9.442;2022-11-24T13:10:32;13.40;99.90
19974;DHT22;10148;47.694;9.442;2022-11-24T13:13:00;13.40;99.90
19974;DHT22;10148;47.694;9.442;2022-11-24T13:15:27;12.60;99.90
19974;DHT22;10148;47.694;9.442;2022-11-24T13:17:53;12.00;99.90
19974;DHT22;10148;47.694;9.442;2022-11-24T13:25:24;11.60;99.90
19974;DHT22;10148;47.694;9.442;2022-11-24T13:27:52;10.60;99.90
19974;DHT22;10148;47.694;9.442;2022-11-24T13:38:50;10.00;99.90
19974;DHT22;10148;47.694;9.442;2022-11-24T13:47:27;12.50;99.90
19974;DHT22;10148;47.694;9.442;2022-11-24T13:49:50;13.30;99.90
19974;DHT22;10148;47.694;9.442;2022-11-24T13:57:55;13.40;99.90
19974;DHT22;10148;47.694;9.442;2022-11-24T14:00:31;13.10;99.90
19974;DHT22;10148;47.694;9.442;2022-11-24T14:03:20;13.10;99.90
19974;DHT22;10148;47.694;9.442;2022-11-24T14:05:51;13.00;99.90
19974;DHT22;10148;47.694;9.442;2022-11-24T14:08:23;13.30;99.90
19974;DHT22;10148;47.694;9.442;2022-11-24T14:10:50;13.50;99.90
19974;DHT22;10148;47.694;9.442;2022-11-24T14:13:23;14.00;99.90
19974;DHT22;10148;47.694;9.442;2022-11-24T14:18:31;13.70;99.90
19974;DHT22;10148;47.694;9.442;2022-11-24T14:20:58;13.70;99.90
19974;DHT22;10148;47.694;9.442;2022-11-24T14:23:24;13.30;99.90
19974;DHT22;10148;47.694;9.442;2022-11-24T14:25:50;13.20;99.90
19974;DHT22;10148;47.694;9.442;2022-11-24T14:28:27;13.00;99.90
19974;DHT22;10148;47.694;9.442;2022-11-24T14:33:45;12.80;99.90
19974;DHT22;10148;47.694;9.442;2022-11-24T14:36:14;12.60;99.90
19974;DHT22;10148;47.694;9.442;2022-11-24T14:38:40;12.60;99.90
19974;DHT22;10148;47.694;9.442;2022-11-24T14:41:24;12.50;99.90
19974;DHT22;10148;47.694;9.442;2022-11-24T14:44:15;12.40;99.90
19974;DHT22;10148;47.694;9.442;2022-11-24T14:46:42;12.20;99.90
19974;DHT22;10148;47.694;9.442;2022-11-24T14:49:08;11.90;99.90
19974;DHT22;10148;47.694;9.442;2022-11-24T14:51:35;11.50;99.90
19974;DHT22;10148;47.694;9.442;2022-11-24T14:54:04;11.30;99.90
19974;DHT22;10148;47.694;9.442;2022-11-24T14:56:36;11.20;99.90
19974;DHT22;10148;47.694;9.442;2022-11-24T14:59:03;11.10;99.90
19974;DHT22;10148;47.694;9.442;2022-11-24T15:01:31;10.90;99.90
19974;DHT22;10148;47.694;9.442;2022-11-24T15:07:04;10.70;99.90
19974;DHT22;10148;47.694;9.442;2022-11-24T15:09:37;10.50;99.90
19974;DHT22;10148;47.694;9.442;2022-11-24T15:12:07;10.40;99.90
19974;DHT22;10148;47.694;9.442;2022-11-24T15:14:38;10.20;99.90
19974;DHT22;10148;47.694;9.442;2022-11-24T15:17:05;10.10;99.90
19974;DHT22;10148;47.694;9.442;2022-11-24T15:19:32;10.00;99.90
19974;DHT22;10148;47.694;9.442;2022-11-24T15:21:58;9.90;99.90
19974;DHT22;10148;47.694;9.442;2022-11-24T15:24:24;9.80;99.90
19974;DHT22;10148;47.694;9.442;2022-11-24T15:26:57;9.70;99.90
19974;DHT22;10148;47.694;9.442;2022-11-24T15:29:23;9.60;99.90
19974;DHT22;10148;47.694;9.442;2022-11-24T15:31:49;9.50;99.90
19974;DHT22;10148;47.694;9.442;2022-11-24T15:34:14;9.50;99.90
19974;DHT22;10148;47.694;9.442;2022-11-24T15:36:40;9.40;99.90
19974;DHT22;10148;47.694;9.442;2022-11-24T15:39:05;9.40;99.90
19974;DHT22;10148;47.694;9.442;2022-11-24T15:41:31;9.40;99.90
19974;DHT22;10148;47.694;9.442;2022-11-24T15:43:58;9.30;99.90
19974;DHT22;10148;47.694;9.442;2022-11-24T15:46:25;9.30;99.90
19974;DHT22;10148;47.694;9.442;2022-11-24T15:48:51;9.20;99.90
19974;DHT22;10148;47.694;9.442;2022-11-24T15:51:18;9.20;99.90
19974;DHT22;10148;47.694;9.442;2022-11-24T15:53:49;9.20;99.90
19974;DHT22;10148;47.694;9.442;2022-11-24T15:56:29;9.20;99.90
19974;DHT22;10148;47.694;9.442;2022-11-24T15:58:55;9.20;99.90
19974;DHT22;10148;47.694;9.442;2022-11-24T16:01:22;9.20;99.90
19974;DHT22;10148;47.694;9.442;2022-11-24T16:03:49;9.10;99.90
19974;DHT22;10148;47.694;9.442;2022-11-24T16:06:17;9.10;99.90
19974;DHT22;10148;47.694;9.442;2022-11-24T16:08:43;9.10;99.90
19974;DHT22;10148;47.694;9.442;2022-11-24T16:11:09;9.00;99.90
19974;DHT22;10148;47.694;9.442;2022-11-24T16:13:34;9.00;99.90
19974;DHT22;10148;47.694;9.442;2022-11-24T16:16:00;9.00;99.90
19974;DHT22;10148;47.694;9.442;2022-11-24T16:18:25;9.00;99.90
19974;DHT22;10148;47.694;9.442;2022-11-24T16:20:51;9.00;99.90
19974;DHT22;10148;47.694;9.442;2022-11-24T16:23:16;8.90;99.90
19974;DHT22;10148;47.694;9.442;2022-11-24T16:25:42;8.90;99.90
19974;DHT22;10148;47.694;9.442;2022-11-24T16:28:08;8.90;99.90
19974;DHT22;10148;47.694;9.442;2022-11-24T16:30:33;8.80;99.90
19974;DHT22;10148;47.694;9.442;2022-11-24T16:33:02;8.80;99.90
19974;DHT22;10148;47.694;9.442;2022-11-24T16:35:29;8.80;99.90
19974;DHT22;10148;47.694;9.442;2022-11-24T16:37:54;8.80;99.90
19974;DHT22;10148;47.694;9.442;2022-11-24T16:40:20;8.70;99.90
19974;DHT22;10148;47.694;9.442;2022-11-24T16:42:46;8.70;99.90
19974;DHT22;10148;47.694;9.442;2022-11-24T16:45:11;8.80;99.90
19974;DHT22;10148;47.694;9.442;2022-11-24T16:47:38;8.70;99.90
19974;DHT22;10148;47.694;9.442;2022-11-24T16:50:05;8.70;99.90
19974;DHT22;10148;47.694;9.442;2022-11-24T16:52:31;8.70;99.90
19974;DHT22;10148;47.694;9.442;2022-11-24T16:54:57;8.60;99.90
19974;DHT22;10148;47.694;9.442;2022-11-24T16:57:22;8.50;99.90
19974;DHT22;10148;47.694;9.442;2022-11-24T16:59:48;8.50;99.90
19974;DHT22;10148;47.694;9.442;2022-11-24T17:02:15;8.40;99.90
19974;DHT22;10148;47.694;9.442;2022-11-24T17:04:40;8.40;99.90
19974;DHT22;10148;47.694;9.442;2022-11-24T17:07:06;8.20;99.90
19974;DHT22;10148;47.694;9.442;2022-11-24T17:09:32;8.10;99.90
19974;DHT22;10148;47.694;9.442;2022-11-24T17:11:58;8.00;99.90
19974;DHT22;10148;47.694;9.442;2022-11-24T17:14:23;7.80;99.90
19974;DHT22;10148;47.694;9.442;2022-11-24T17:16:49;7.70;99.90
19974;DHT22;10148;47.694;9.442;2022-11-24T17:19:14;7.50;99.90
19974;DHT22;10148;47.694;9.442;2022-11-24T17:21:40;7.40;99.90
19974;DHT22;10148;47.694;9.442;2022-11-24T17:24:06;7.30;99.90
19974;DHT22;10148;47.694;9.442;2022-11-24T17:26:33;7.20;99.90
19974;DHT22;10148;47.694;9.442;2022-11-24T17:28:59;7.10;99.90
19974;DHT22;10148;47.694;9.442;2022-11-24T17:33:52;6.90;99.90
19974;DHT22;10148;47.694;9.442;2022-11-24T17:36:18;6.90;99.90
19974;DHT22;10148;47.694;9.442;2022-11-24T17:38:44;6.90;99.90
19974;DHT22;10148;47.694;9.442;2022-11-24T17:41:10;6.90;99.90
19974;DHT22;10148;47.694;9.442;2022-11-24T17:43:36;7.00;99.90
19974;DHT22;10148;47.694;9.442;2022-11-24T17:46:03;6.90;99.90
19974;DHT22;10148;47.694;9.442;2022-11-24T17:48:29;7.00;99.90
19974;DHT22;10148;47.694;9.442;2022-11-24T17:51:08;7.00;99.90